Time;durP1;ratioP1;P1;durP2;ratioP2;P2;SDS_P1;SDS_P2;PMS_P1;PMS_P2;Temp;Humidity;BMP_temperature;BMP_pressure;BME280_temperature;BME280_humidity;BME280_pressure;Samples;Min_cycle;Max_cycle;Signal;HPM_P1;HPM_P2
2022/08/29 00:00:40;;;;;;;9.85;3.53;;;16.70;99.90;;;;;;5028732;28;20558;-70
2022/08/29 00:03:06;;;;;;;8.55;3.40;;;16.70;99.90;;;;;;5029417;28;20206;-70
2022/08/29 00:05:35;;;;;;;8.88;4.00;;;16.60;99.90;;;;;;5028902;28;20228;-71
2022/08/29 00:08:02;;;;;;;9.15;3.80;;;16.50;99.90;;;;;;5027728;28;20211;-70
2022/08/29 00:10:29;;;;;;;5.72;3.33;;;16.50;99.90;;;;;;5023560;28;20200;-71
2022/08/29 00:12:55;;;;;;;8.77;3.88;;;16.50;99.90;;;;;;5028965;28;20213;-70
2022/08/29 00:15:21;;;;;;;11.05;3.65;;;16.50;99.90;;;;;;5029347;28;20173;-72
2022/08/29 00:17:47;;;;;;;6.60;3.70;;;16.40;99.90;;;;;;5029182;28;20204;-71
2022/08/29 00:20:19;;;;;;;6.47;4.20;;;16.40;99.90;;;;;;5028576;28;20208;-69
2022/08/29 00:22:44;;;;;;;8.32;4.07;;;16.40;99.90;;;;;;5021537;28;20219;-71
2022/08/29 00:25:12;;;;;;;7.00;3.65;;;16.40;99.90;;;;;;5044140;28;20213;-73
2022/08/29 00:27:38;;;;;;;7.53;4.20;;;16.30;99.90;;;;;;5029254;28;20212;-71
2022/08/29 00:30:06;;;;;;;7.50;3.28;;;16.30;99.90;;;;;;5029044;28;20204;-70
2022/08/29 00:32:33;;;;;;;8.55;3.80;;;16.30;99.90;;;;;;5028906;28;20212;-70
2022/08/29 00:35:08;;;;;;;9.73;4.05;;;16.30;99.90;;;;;;5028874;28;20208;-70
2022/08/29 00:37:34;;;;;;;10.00;4.38;;;16.20;99.90;;;;;;5032427;28;20225;-70
2022/08/29 00:40:02;;;;;;;7.75;3.45;;;16.20;99.90;;;;;;5032359;28;20687;-71
2022/08/29 00:42:28;;;;;;;7.50;3.17;;;16.20;99.90;;;;;;5032155;28;20216;-70
2022/08/29 00:44:53;;;;;;;10.93;4.07;;;16.20;99.90;;;;;;5032982;28;20191;-70
2022/08/29 00:47:26;;;;;;;8.23;3.17;;;16.20;99.90;;;;;;5032398;28;20211;-70
2022/08/29 00:49:54;;;;;;;7.45;4.10;;;16.20;99.90;;;;;;5032144;28;20290;-70
2022/08/29 00:52:49;;;;;;;10.27;4.35;;;16.20;99.90;;;;;;5030220;28;20211;-72
2022/08/29 00:55:21;;;;;;;8.93;4.18;;;16.20;99.90;;;;;;5023119;28;20789;-71
2022/08/29 00:57:53;;;;;;;8.95;3.45;;;16.10;99.90;;;;;;5028929;28;20728;-72
2022/08/29 01:00:20;;;;;;;8.10;3.85;;;16.10;99.90;;;;;;5032507;28;20268;-71
2022/08/29 01:02:47;;;;;;;13.60;4.15;;;16.10;99.90;;;;;;5030795;28;20220;-70
2022/08/29 01:05:15;;;;;;;7.80;3.80;;;16.20;99.90;;;;;;5032223;28;20776;-72
2022/08/29 01:07:41;;;;;;;9.88;4.15;;;16.10;99.90;;;;;;5031972;28;20974;-71
2022/08/29 01:10:09;;;;;;;10.90;4.20;;;16.10;99.90;;;;;;5031565;28;20204;-71
2022/08/29 01:12:35;;;;;;;8.15;3.85;;;16.00;99.90;;;;;;5031578;28;20193;-70
2022/08/29 01:15:09;;;;;;;11.00;4.30;;;16.00;99.90;;;;;;5032279;28;20210;-70
2022/08/29 01:17:44;;;;;;;12.38;3.78;;;16.00;99.90;;;;;;5028630;28;20206;-70
2022/08/29 01:20:39;;;;;;;9.77;3.15;;;16.00;99.90;;;;;;5031740;28;20208;-71
2022/08/29 01:23:28;;;;;;;7.53;3.53;;;16.00;99.90;;;;;;5026979;28;20594;-71
2022/08/29 01:25:55;;;;;;;9.10;4.00;;;16.00;99.90;;;;;;5023528;28;20685;-72
2022/08/29 01:28:31;;;;;;;7.40;3.28;;;16.00;99.90;;;;;;5031583;28;20257;-71
2022/08/29 01:31:12;;;;;;;9.38;3.85;;;16.00;99.90;;;;;;5031391;28;20564;-74
2022/08/29 01:33:48;;;;;;;6.82;3.55;;;16.00;99.90;;;;;;5027304;28;20204;-71
2022/08/29 01:36:36;;;;;;;8.32;4.55;;;16.00;99.90;;;;;;5031959;28;20294;-72
2022/08/29 01:39:01;;;;;;;7.63;3.40;;;15.90;99.90;;;;;;5029205;28;20209;-70
2022/08/29 01:41:27;;;;;;;9.30;3.42;;;15.90;99.90;;;;;;5051841;23;20228;-69
2022/08/29 01:43:55;;;;;;;9.40;3.55;;;15.90;99.90;;;;;;5040633;28;20220;-67
2022/08/29 01:46:38;;;;;;;8.10;3.65;;;15.90;99.90;;;;;;5042147;28;20196;-68
2022/08/29 01:49:08;;;;;;;8.55;3.88;;;15.90;99.90;;;;;;5039729;28;20250;-68
2022/08/29 01:51:35;;;;;;;9.05;4.55;;;15.80;99.90;;;;;;5038482;28;20227;-68
2022/08/29 01:54:01;;;;;;;6.68;3.00;;;15.80;99.90;;;;;;5035743;28;20172;-68
2022/08/29 01:56:30;;;;;;;8.48;3.83;;;15.80;99.90;;;;;;5039439;28;20696;-69
2022/08/29 01:58:57;;;;;;;8.30;3.85;;;15.80;99.90;;;;;;5038520;28;20212;-68
2022/08/29 02:01:27;;;;;;;8.52;3.83;;;15.70;99.90;;;;;;5042381;28;20696;-68
2022/08/29 02:03:53;;;;;;;7.20;3.63;;;15.70;99.90;;;;;;5035551;28;20637;-67
2022/08/29 02:06:20;;;;;;;8.18;3.90;;;15.70;99.90;;;;;;5040879;28;20176;-69
2022/08/29 02:08:46;;;;;;;11.07;3.78;;;15.70;99.90;;;;;;5040902;28;20242;-66
2022/08/29 02:11:12;;;;;;;10.38;4.25;;;15.70;99.90;;;;;;5038321;28;20567;-66
2022/08/29 02:13:40;;;;;;;6.55;3.85;;;15.70;99.90;;;;;;5042113;28;20234;-68
2022/08/29 02:16:06;;;;;;;7.93;4.13;;;15.60;99.90;;;;;;5037158;28;20563;-69
2022/08/29 02:18:32;;;;;;;10.75;3.95;;;15.60;99.90;;;;;;5040746;28;20171;-68
2022/08/29 02:20:58;;;;;;;10.27;4.40;;;15.60;99.90;;;;;;5037153;28;20172;-68
2022/08/29 02:23:24;;;;;;;9.63;4.50;;;15.60;99.90;;;;;;5023345;28;20584;-68
2022/08/29 02:25:50;;;;;;;9.98;4.30;;;15.60;99.90;;;;;;5033827;28;20231;-68
2022/08/29 02:28:17;;;;;;;10.27;3.83;;;15.60;99.90;;;;;;5037730;28;20197;-69
2022/08/29 02:30:47;;;;;;;8.50;3.80;;;15.60;99.90;;;;;;5034572;28;20191;-68
2022/08/29 02:33:12;;;;;;;10.30;4.13;;;15.60;99.90;;;;;;5033745;28;20280;-68
2022/08/29 02:35:39;;;;;;;8.75;4.30;;;15.60;99.90;;;;;;5033262;28;20212;-68
2022/08/29 02:38:05;;;;;;;7.97;3.75;;;15.50;99.90;;;;;;5036472;28;20204;-68
2022/08/29 02:40:31;;;;;;;13.32;4.03;;;15.50;99.90;;;;;;5032562;28;20577;-68
2022/08/29 02:42:57;;;;;;;12.60;4.47;;;15.50;99.90;;;;;;5037272;28;20230;-67
2022/08/29 02:45:23;;;;;;;9.52;4.05;;;15.50;99.90;;;;;;5036347;28;20172;-68
2022/08/29 02:47:49;;;;;;;9.45;4.30;;;15.50;99.90;;;;;;5035189;28;20308;-68
2022/08/29 02:50:16;;;;;;;8.52;3.70;;;15.40;99.90;;;;;;5033298;28;20204;-68
2022/08/29 02:52:42;;;;;;;8.05;4.13;;;15.40;99.90;;;;;;5037527;28;20564;-68
2022/08/29 02:55:12;;;;;;;9.20;4.47;;;15.30;99.90;;;;;;5024147;28;20196;-68
2022/08/29 02:57:37;;;;;;;8.07;3.97;;;15.30;99.90;;;;;;5014364;28;20169;-68
2022/08/29 03:00:07;;;;;;;11.52;3.90;;;15.40;99.90;;;;;;5036287;28;20251;-68
2022/08/29 03:02:33;;;;;;;8.60;3.65;;;15.30;99.90;;;;;;5038126;28;20254;-68
2022/08/29 03:04:59;;;;;;;11.98;4.30;;;15.30;99.90;;;;;;5033675;28;20207;-68
2022/08/29 03:07:25;;;;;;;11.65;4.40;;;15.20;99.90;;;;;;5033489;28;20587;-68
2022/08/29 03:09:51;;;;;;;8.38;4.28;;;15.20;99.90;;;;;;5038005;28;20227;-68
2022/08/29 03:12:17;;;;;;;9.30;4.32;;;15.30;99.90;;;;;;5034157;28;20230;-68
2022/08/29 03:14:43;;;;;;;12.15;4.90;;;15.20;99.90;;;;;;5033611;28;20210;-68
2022/08/29 03:17:08;;;;;;;12.10;4.47;;;15.20;99.90;;;;;;5033776;28;20580;-67
2022/08/29 03:19:34;;;;;;;11.30;3.90;;;15.20;99.90;;;;;;5037581;28;20200;-68
2022/08/29 03:21:59;;;;;;;7.38;3.60;;;15.20;99.90;;;;;;5033155;28;20295;-68
2022/08/29 03:24:25;;;;;;;10.73;4.47;;;15.20;99.90;;;;;;5030810;28;20187;-68
2022/08/29 03:26:51;;;;;;;8.85;4.07;;;15.20;99.90;;;;;;5037867;28;20732;-68
2022/08/29 03:29:16;;;;;;;7.93;4.22;;;15.10;99.90;;;;;;5036676;28;20203;-67
2022/08/29 03:31:42;;;;;;;9.02;3.83;;;15.10;99.90;;;;;;5029932;28;20701;-67
2022/08/29 03:34:07;;;;;;;12.15;4.80;;;15.00;99.90;;;;;;5035272;28;20199;-68
2022/08/29 03:36:33;;;;;;;9.48;4.05;;;15.10;99.90;;;;;;5036593;28;20590;-68
2022/08/29 03:38:59;;;;;;;8.25;3.97;;;15.10;99.90;;;;;;5033392;28;20181;-68
2022/08/29 03:41:27;;;;;;;9.85;4.57;;;15.10;99.90;;;;;;5032355;28;20224;-68
2022/08/29 03:43:54;;;;;;;12.85;4.57;;;15.00;99.90;;;;;;5037523;28;20750;-67
2022/08/29 03:46:20;;;;;;;11.40;4.30;;;15.00;99.90;;;;;;5036810;28;20693;-68
2022/08/29 03:48:47;;;;;;;8.25;4.22;;;14.90;99.90;;;;;;5030589;28;20208;-68
2022/08/29 03:51:13;;;;;;;12.95;4.28;;;14.90;99.90;;;;;;5033977;28;20204;-68
2022/08/29 03:53:39;;;;;;;9.02;4.40;;;14.90;99.90;;;;;;5033828;28;20204;-68
2022/08/29 03:56:06;;;;;;;11.43;4.43;;;14.90;99.90;;;;;;5028493;28;20211;-68
2022/08/29 03:58:33;;;;;;;7.47;4.47;;;14.90;99.90;;;;;;5030921;28;20685;-68
2022/08/29 04:00:58;;;;;;;10.13;4.65;;;14.90;99.90;;;;;;5036512;28;20219;-68
2022/08/29 04:03:24;;;;;;;9.20;4.05;;;14.90;99.90;;;;;;5036695;28;20200;-68
2022/08/29 04:05:50;;;;;;;10.82;4.82;;;14.90;99.90;;;;;;5032077;28;20208;-68
2022/08/29 04:08:15;;;;;;;12.25;4.50;;;14.90;99.90;;;;;;5033058;28;20773;-68
2022/08/29 04:10:41;;;;;;;9.68;4.78;;;14.90;99.90;;;;;;5037085;28;20227;-69
2022/08/29 04:13:07;;;;;;;9.90;3.75;;;14.90;99.90;;;;;;5042061;28;20269;-68
2022/08/29 04:15:34;;;;;;;10.80;4.53;;;14.90;99.90;;;;;;5039163;28;20566;-68
2022/08/29 04:18:03;;;;;;;9.93;5.07;;;14.90;99.90;;;;;;5045953;28;20644;-69
2022/08/29 04:20:31;;;;;;;12.85;4.68;;;14.90;99.90;;;;;;5044376;28;20580;-68
2022/08/29 04:22:58;;;;;;;10.43;4.68;;;14.90;99.90;;;;;;5036947;28;20216;-68
2022/08/29 04:25:26;;;;;;;11.40;4.38;;;15.00;99.90;;;;;;5036351;28;20619;-68
2022/08/29 04:27:53;;;;;;;9.25;4.18;;;15.00;99.90;;;;;;5042498;28;20203;-68
2022/08/29 04:30:22;;;;;;;8.85;4.38;;;15.00;99.90;;;;;;5033862;28;20156;-68
2022/08/29 04:32:48;;;;;;;7.78;4.78;;;15.00;99.90;;;;;;5032501;28;20208;-68
2022/08/29 04:35:15;;;;;;;9.05;3.97;;;15.00;99.90;;;;;;5042543;28;20192;-69
2022/08/29 04:37:41;;;;;;;15.73;6.25;;;15.10;99.90;;;;;;5040705;28;20215;-67
2022/08/29 04:40:09;;;;;;;10.32;4.32;;;15.10;99.90;;;;;;5040790;28;20208;-68
2022/08/29 04:42:38;;;;;;;8.60;4.75;;;15.10;99.90;;;;;;5037857;28;20634;-68
2022/08/29 04:45:10;;;;;;;13.25;4.72;;;15.10;99.90;;;;;;5040672;28;20173;-68
2022/08/29 04:47:37;;;;;;;10.70;4.43;;;15.20;99.90;;;;;;5031683;28;20195;-68
2022/08/29 04:50:03;;;;;;;9.50;4.10;;;15.40;99.90;;;;;;5038621;28;20218;-67
2022/08/29 04:52:29;;;;;;;11.60;4.90;;;15.50;99.90;;;;;;5043693;28;20199;-68
2022/08/29 04:54:55;;;;;;;10.38;4.82;;;16.20;99.90;;;;;;5039661;28;20696;-67
2022/08/29 04:57:21;;;;;;;8.85;4.28;;;16.80;99.90;;;;;;5041604;28;20247;-68
2022/08/29 04:59:51;;;;;;;12.55;5.45;;;16.70;99.90;;;;;;5040447;28;20207;-68
2022/08/29 05:02:17;;;;;;;13.48;5.03;;;17.40;99.90;;;;;;5041057;28;20203;-68
2022/08/29 05:04:43;;;;;;;11.57;5.40;;;16.80;99.90;;;;;;5036400;28;20700;-68
2022/08/29 05:07:09;;;;;;;11.45;5.35;;;16.40;99.90;;;;;;5040069;28;20563;-68
2022/08/29 05:09:34;;;;;;;11.98;5.72;;;16.20;99.90;;;;;;5042800;28;20194;-68
2022/08/29 05:12:00;;;;;;;12.68;5.85;;;15.90;99.90;;;;;;5039137;28;20266;-67
2022/08/29 05:14:25;;;;;;;12.63;5.82;;;15.90;99.90;;;;;;5041419;28;20200;-68
2022/08/29 05:16:51;;;;;;;16.40;5.75;;;15.90;99.90;;;;;;5041340;28;20611;-69
2022/08/29 05:19:16;;;;;;;11.75;6.18;;;15.90;99.90;;;;;;5040716;28;20246;-67
2022/08/29 05:21:42;;;;;;;16.95;6.82;;;15.80;99.90;;;;;;5039400;28;20717;-68
2022/08/29 05:24:10;;;;;;;12.35;6.57;;;15.70;99.90;;;;;;5040152;28;20283;-67
2022/08/29 05:26:39;;;;;;;22.80;7.68;;;15.70;99.90;;;;;;5042944;28;20290;-67
2022/08/29 05:29:07;;;;;;;16.92;6.55;;;15.70;99.90;;;;;;5039474;28;20567;-67
2022/08/29 05:31:35;;;;;;;16.20;6.78;;;15.80;99.90;;;;;;5041846;28;20207;-67
2022/08/29 05:34:00;;;;;;;13.30;5.88;;;15.90;99.90;;;;;;5036222;28;20295;-68
2022/08/29 05:36:26;;;;;;;17.30;6.70;;;16.00;99.90;;;;;;5042994;28;20259;-67
2022/08/29 05:38:51;;;;;;;13.68;6.57;;;16.10;99.90;;;;;;5039741;28;20256;-68
2022/08/29 05:41:17;;;;;;;20.10;7.20;;;16.10;99.90;;;;;;5034531;28;20223;-67
2022/08/29 05:43:43;;;;;;;12.95;6.15;;;16.20;99.90;;;;;;5041051;28;20235;-68
2022/08/29 05:46:10;;;;;;;15.15;6.20;;;16.30;99.90;;;;;;5038617;28;20575;-68
2022/08/29 05:48:39;;;;;;;8.82;5.38;;;16.40;99.90;;;;;;5041859;28;20184;-68
2022/08/29 05:51:05;;;;;;;10.75;6.22;;;16.50;99.90;;;;;;5037354;28;20204;-68
2022/08/29 05:53:30;;;;;;;12.45;5.25;;;16.60;99.90;;;;;;5040790;28;20199;-67
2022/08/29 05:55:56;;;;;;;12.15;5.82;;;16.70;99.90;;;;;;5038676;28;20210;-67
2022/08/29 05:58:21;;;;;;;12.75;5.82;;;16.80;99.90;;;;;;5039294;28;20196;-67
2022/08/29 06:00:48;;;;;;;14.10;5.82;;;16.90;99.90;;;;;;5040010;28;20199;-68
2022/08/29 06:03:14;;;;;;;14.20;5.63;;;16.90;99.90;;;;;;5035497;28;20196;-68
2022/08/29 06:05:40;;;;;;;14.88;6.78;;;16.90;99.90;;;;;;5042114;28;20199;-69
2022/08/29 06:08:07;;;;;;;13.45;6.18;;;16.90;99.90;;;;;;5038746;28;20277;-68
2022/08/29 06:10:33;;;;;;;13.35;6.50;;;17.00;99.90;;;;;;5041630;28;20203;-68
2022/08/29 06:12:58;;;;;;;11.45;5.30;;;17.00;99.90;;;;;;5038682;28;20208;-67
2022/08/29 06:15:27;;;;;;;16.55;6.60;;;17.00;99.90;;;;;;5039839;28;20172;-68
2022/08/29 06:17:53;;;;;;;11.35;4.90;;;16.90;99.90;;;;;;5039520;28;20270;-67
2022/08/29 06:20:19;;;;;;;9.48;4.93;;;16.90;99.90;;;;;;5037907;28;20200;-68
2022/08/29 06:22:44;;;;;;;11.25;5.60;;;16.80;99.90;;;;;;5041867;28;20222;-68
2022/08/29 06:25:10;;;;;;;17.13;6.25;;;16.80;99.90;;;;;;5039229;28;20235;-67
2022/08/29 06:27:35;;;;;;;11.80;5.78;;;16.80;99.90;;;;;;5040312;28;20176;-68
2022/08/29 06:30:01;;;;;;;10.75;5.45;;;16.80;99.90;;;;;;5037284;28;20540;-68
2022/08/29 06:32:26;;;;;;;15.02;6.20;;;16.70;99.90;;;;;;5039375;28;20216;-68
2022/08/29 06:34:52;;;;;;;16.63;6.78;;;16.70;99.90;;;;;;5035844;28;20740;-67
2022/08/29 06:37:17;;;;;;;22.27;6.80;;;16.60;99.90;;;;;;5035033;28;20215;-68
2022/08/29 06:39:43;;;;;;;15.10;6.85;;;16.70;99.90;;;;;;5041345;28;20218;-68
2022/08/29 06:42:09;;;;;;;16.95;6.80;;;16.70;99.90;;;;;;5038803;28;20216;-68
2022/08/29 06:44:34;;;;;;;15.43;6.68;;;16.70;99.90;;;;;;5038919;28;20219;-67
2022/08/29 06:47:00;;;;;;;11.10;5.35;;;16.70;99.90;;;;;;5037398;28;20586;-68
2022/08/29 06:49:26;;;;;;;18.38;5.85;;;16.70;99.90;;;;;;5036961;28;20261;-68
2022/08/29 06:51:52;;;;;;;13.55;5.53;;;16.80;99.90;;;;;;5038569;28;20231;-68
2022/08/29 06:54:22;;;;;;;11.65;5.75;;;16.90;99.90;;;;;;5032065;28;20823;-67
2022/08/29 06:56:49;;;;;;;14.40;6.28;;;17.00;99.90;;;;;;5034465;28;20203;-68
2022/08/29 06:59:16;;;;;;;11.70;6.22;;;17.20;99.90;;;;;;5035273;28;20208;-68
2022/08/29 07:01:43;;;;;;;17.05;5.82;;;17.40;99.90;;;;;;5038322;28;20544;-69
2022/08/29 07:04:09;;;;;;;9.77;5.47;;;17.40;99.90;;;;;;5037626;28;20224;-67
2022/08/29 07:06:36;;;;;;;11.25;5.95;;;17.50;99.90;;;;;;5041383;28;20175;-67
2022/08/29 07:09:03;;;;;;;17.35;5.63;;;17.60;99.90;;;;;;5036599;28;20224;-68
2022/08/29 07:11:30;;;;;;;10.82;5.75;;;17.60;99.90;;;;;;5040189;28;20605;-68
2022/08/29 07:13:57;;;;;;;15.82;5.72;;;17.60;99.90;;;;;;5037303;28;20231;-67
2022/08/29 07:16:23;;;;;;;15.85;6.03;;;17.60;99.90;;;;;;5039782;28;20200;-66
2022/08/29 07:18:49;;;;;;;14.73;5.45;;;17.50;99.90;;;;;;5037247;28;20212;-67
2022/08/29 07:21:17;;;;;;;14.88;5.70;;;17.50;99.90;;;;;;5037536;28;20287;-67
2022/08/29 07:23:42;;;;;;;10.65;5.32;;;17.50;99.90;;;;;;5034563;28;20329;-67
2022/08/29 07:26:18;;;;;;;12.50;5.65;;;17.50;99.90;;;;;;5037945;28;20690;-66
2022/08/29 07:28:53;;;;;;;12.88;5.80;;;17.60;99.90;;;;;;5033757;28;20209;-68
2022/08/29 07:31:19;;;;;;;13.85;5.72;;;17.70;99.90;;;;;;5029815;28;20203;-69
2022/08/29 07:33:44;;;;;;;11.70;6.07;;;17.70;99.90;;;;;;5002259;28;20185;-68
2022/08/29 07:36:10;;;;;;;12.35;5.55;;;17.70;99.90;;;;;;5022391;28;20181;-68
2022/08/29 07:38:36;;;;;;;18.90;9.32;;;17.70;99.90;;;;;;5024832;28;20223;-68
2022/08/29 07:41:07;;;;;;;13.93;9.38;;;17.70;99.90;;;;;;5032349;28;20204;-69
2022/08/29 07:43:33;;;;;;;15.80;6.20;;;17.70;99.90;;;;;;5052104;23;20212;-70
2022/08/29 07:46:04;;;;;;;13.32;6.35;;;17.70;99.90;;;;;;5051622;28;20214;-72
2022/08/29 07:48:29;;;;;;;14.50;6.13;;;17.70;99.90;;;;;;5051723;28;20653;-70
2022/08/29 07:50:55;;;;;;;12.05;5.70;;;17.60;99.90;;;;;;5044872;28;20194;-71
2022/08/29 07:53:20;;;;;;;11.40;5.00;;;17.60;99.90;;;;;;5053679;28;20214;-73
2022/08/29 07:55:46;;;;;;;11.45;6.18;;;17.70;99.90;;;;;;5054551;28;20191;-71
2022/08/29 07:58:11;;;;;;;14.68;6.47;;;17.60;99.90;;;;;;5052713;28;20327;-71
2022/08/29 08:00:37;;;;;;;12.13;5.70;;;17.70;99.90;;;;;;5057377;28;20637;-72
2022/08/29 08:03:03;;;;;;;10.90;5.50;;;17.80;99.90;;;;;;5053617;28;20342;-71
2022/08/29 08:05:28;;;;;;;10.25;6.05;;;17.80;99.90;;;;;;5045077;28;20619;-72
2022/08/29 08:07:54;;;;;;;10.95;6.32;;;17.90;99.90;;;;;;5052890;28;20852;-71
2022/08/29 08:10:20;;;;;;;12.75;6.82;;;18.00;99.90;;;;;;5054666;28;20211;-71
2022/08/29 08:12:47;;;;;;;10.80;6.38;;;18.10;99.90;;;;;;5054055;28;20222;-72
2022/08/29 08:15:14;;;;;;;18.65;7.22;;;18.20;99.90;;;;;;5050237;28;20180;-71
2022/08/29 08:17:40;;;;;;;10.38;6.63;;;18.20;99.90;;;;;;5057131;28;20628;-71
2022/08/29 08:20:07;;;;;;;13.27;6.30;;;18.30;99.90;;;;;;5052038;28;20208;-71
2022/08/29 08:22:33;;;;;;;9.07;5.97;;;18.60;99.90;;;;;;5049982;28;20215;-70
2022/08/29 08:24:59;;;;;;;9.85;5.95;;;18.70;99.90;;;;;;5052669;28;20306;-70
2022/08/29 08:27:25;;;;;;;11.85;5.63;;;18.70;99.90;;;;;;5058116;28;20249;-71
2022/08/29 08:29:50;;;;;;;8.55;5.55;;;18.90;99.90;;;;;;5050213;28;20183;-71
2022/08/29 08:32:16;;;;;;;10.15;5.78;;;18.90;99.90;;;;;;5049215;28;20274;-71
2022/08/29 08:34:41;;;;;;;15.73;5.85;;;18.80;99.90;;;;;;5056284;28;20202;-72
2022/08/29 08:37:08;;;;;;;9.55;5.90;;;18.80;99.90;;;;;;5053399;28;20290;-70
2022/08/29 08:39:34;;;;;;;11.32;5.20;;;18.70;99.90;;;;;;5051515;28;20183;-72
2022/08/29 08:42:03;;;;;;;10.18;5.43;;;18.70;99.90;;;;;;5053183;28;20176;-71
2022/08/29 08:44:48;;;;;;;12.35;5.70;;;18.70;99.90;;;;;;5057588;28;20572;-71
2022/08/29 08:47:18;;;;;;;7.63;5.25;;;18.60;99.90;;;;;;5049445;28;20196;-71
2022/08/29 08:49:57;;;;;;;11.27;6.55;;;18.60;99.90;;;;;;5052765;28;20203;-71
2022/08/29 08:53:08;;;;;;;13.10;6.63;;;18.70;99.90;;;;;;5054956;28;20637;-71
2022/08/29 08:55:53;;;;;;;11.18;6.45;;;18.70;99.90;;;;;;5049398;28;20200;-72
2022/08/29 08:58:32;;;;;;;10.48;5.90;;;18.90;99.90;;;;;;5053148;28;20200;-71
2022/08/29 09:01:00;;;;;;;11.75;6.20;;;19.00;99.90;;;;;;5058400;28;20211;-72
2022/08/29 09:03:47;;;;;;;9.98;5.53;;;19.00;99.90;;;;;;5052836;28;20205;-70
2022/08/29 09:06:28;;;;;;;10.57;5.63;;;19.00;99.90;;;;;;5057089;28;20181;-70
2022/08/29 09:09:06;;;;;;;12.35;5.47;;;19.00;99.90;;;;;;5057432;28;20253;-70
2022/08/29 09:11:37;;;;;;;9.05;5.45;;;19.00;99.90;;;;;;5058695;28;20217;-71
2022/08/29 09:14:40;;;;;;;6.30;4.43;;;19.10;99.90;;;;;;5051657;28;20219;-70
2022/08/29 09:17:15;;;;;;;7.80;5.32;;;19.40;99.90;;;;;;5053351;28;20199;-70
2022/08/29 09:19:41;;;;;;;12.20;6.10;;;19.80;99.90;;;;;;5060228;28;20218;-72
2022/08/29 09:22:15;;;;;;;11.57;5.15;;;20.00;99.90;;;;;;5050138;28;20770;-71
2022/08/29 09:24:49;;;;;;;10.50;5.63;;;19.90;99.90;;;;;;5052785;28;20199;-71
2022/08/29 09:27:34;;;;;;;7.65;5.07;;;19.90;99.90;;;;;;5059182;28;20179;-70
2022/08/29 09:30:06;;;;;;;13.35;6.10;;;20.00;99.90;;;;;;5052627;28;20247;-71
2022/08/29 09:32:32;;;;;;;14.70;7.07;;;20.00;99.90;;;;;;5055166;28;20210;-71
2022/08/29 09:34:58;;;;;;;12.13;6.05;;;19.90;99.90;;;;;;5049856;28;20579;-73
2022/08/29 09:37:32;;;;;;;15.32;6.47;;;19.90;99.90;;;;;;5048177;28;20541;-73
2022/08/29 09:40:06;;;;;;;14.20;5.72;;;19.70;99.90;;;;;;5054506;28;20209;-76
2022/08/29 09:42:35;;;;;;;10.13;5.57;;;19.70;99.90;;;;;;5059071;28;20199;-73
2022/08/29 09:45:16;;;;;;;10.48;5.70;;;19.70;99.90;;;;;;5055988;28;20194;-73
2022/08/29 09:47:42;;;;;;;11.50;5.32;;;19.50;99.90;;;;;;5049383;28;20202;-74
2022/08/29 09:50:17;;;;;;;11.18;5.85;;;19.40;99.90;;;;;;5052068;28;20736;-76
2022/08/29 09:52:50;;;;;;;10.60;5.82;;;19.60;99.90;;;;;;5049436;28;20677;-72
2022/08/29 09:55:21;;;;;;;9.77;5.30;;;19.70;99.90;;;;;;5051567;28;20662;-73
2022/08/29 09:57:54;;;;;;;10.80;5.35;;;19.80;99.90;;;;;;5050345;28;20221;-72
2022/08/29 10:00:29;;;;;;;7.72;5.28;;;19.70;99.90;;;;;;5056790;28;20184;-72
2022/08/29 10:02:58;;;;;;;12.25;5.03;;;19.70;99.90;;;;;;5056034;28;20293;-72
2022/08/29 10:05:29;;;;;;;13.15;6.30;;;19.70;99.90;;;;;;5054289;28;20200;-73
2022/08/29 10:07:56;;;;;;;10.40;6.13;;;19.80;99.90;;;;;;5056439;28;20599;-72
2022/08/29 10:10:29;;;;;;;12.38;6.57;;;19.80;99.90;;;;;;5047833;28;20198;-73
2022/08/29 10:13:10;;;;;;;11.55;5.78;;;19.90;99.90;;;;;;5050296;28;20211;-72
2022/08/29 10:15:45;;;;;;;9.30;5.80;;;20.00;99.90;;;;;;5056449;28;20258;-71
2022/08/29 10:18:27;;;;;;;9.00;5.30;;;20.20;99.90;;;;;;5043302;28;20671;-72
2022/08/29 10:21:14;;;;;;;12.00;6.05;;;20.40;99.90;;;;;;5050867;28;20214;-73
2022/08/29 10:23:54;;;;;;;9.15;5.78;;;20.60;99.90;;;;;;5056492;28;20684;-75
2022/08/29 10:26:39;;;;;;;9.32;5.68;;;20.60;99.90;;;;;;5056783;28;20294;-75
2022/08/29 10:29:56;;;;;;;8.00;4.90;;;20.60;99.90;;;;;;5053390;28;20203;-75
2022/08/29 10:32:48;;;;;;;13.98;5.88;;;20.70;99.90;;;;;;5031796;28;20227;-74
2022/08/29 10:35:35;;;;;;;7.22;5.10;;;20.80;99.90;;;;;;5040812;28;20279;-73
2022/08/29 10:38:38;;;;;;;12.15;6.60;;;21.00;99.90;;;;;;5054249;28;20203;-71
2022/08/29 10:41:37;;;;;;;10.82;5.50;;;21.30;99.90;;;;;;5055396;28;20568;-72
2022/08/29 10:44:40;;;;;;;10.05;5.15;;;21.80;99.90;;;;;;5056728;28;20696;-75
2022/08/29 10:47:23;;;;;;;7.32;5.20;;;21.90;99.90;;;;;;5050489;28;20206;-76
2022/08/29 10:50:20;;;;;;;7.95;4.82;;;21.60;99.90;;;;;;5054118;28;20206;-76
2022/08/29 10:52:45;;;;;;;10.32;5.50;;;21.50;99.90;;;;;;5055905;28;20281;-75
2022/08/29 10:55:11;;;;;;;11.20;5.55;;;21.30;99.90;;;;;;5054811;28;20232;-74
2022/08/29 10:57:55;;;;;;;9.75;6.07;;;21.10;99.90;;;;;;5059115;28;20167;-73
2022/08/29 11:00:27;;;;;;;9.02;5.35;;;21.10;99.90;;;;;;5055720;28;20176;-74
2022/08/29 11:02:55;;;;;;;8.88;5.78;;;20.90;99.90;;;;;;5056241;28;20207;-70
2022/08/29 11:05:25;;;;;;;14.40;6.10;;;20.60;99.90;;;;;;5049268;28;20224;-75
2022/08/29 11:08:03;;;;;;;8.07;5.57;;;20.60;99.90;;;;;;5055663;28;20214;-73
2022/08/29 11:10:39;;;;;;;11.07;5.43;;;20.60;99.90;;;;;;5048888;28;20202;-77
2022/08/29 11:13:17;;;;;;;9.35;5.32;;;20.70;99.90;;;;;;5051299;28;20635;-75
2022/08/29 11:16:02;;;;;;;10.27;5.25;;;20.70;99.90;;;;;;5051565;28;20174;-74
2022/08/29 11:18:34;;;;;;;8.35;5.20;;;20.80;99.90;;;;;;5059880;28;20702;-73
2022/08/29 11:21:12;;;;;;;6.95;5.43;;;21.10;99.90;;;;;;5055510;28;20587;-73
2022/08/29 11:23:40;;;;;;;9.70;5.97;;;21.20;99.90;;;;;;5054879;28;20203;-73
2022/08/29 11:26:21;;;;;;;8.07;5.57;;;21.30;99.90;;;;;;5051556;28;20665;-74
2022/08/29 11:29:12;;;;;;;13.75;5.72;;;21.40;99.90;;;;;;5057077;28;20217;-74
2022/08/29 11:31:50;;;;;;;8.85;5.05;;;21.60;99.90;;;;;;5052680;28;20292;-73
2022/08/29 11:34:20;;;;;;;12.45;5.65;;;21.80;99.90;;;;;;5040734;28;20208;-72
2022/08/29 11:37:07;;;;;;;8.55;5.07;;;21.90;99.90;;;;;;5056618;28;20260;-74
2022/08/29 11:39:49;;;;;;;9.18;4.97;;;21.90;99.90;;;;;;5033784;28;20203;-76
2022/08/29 11:42:18;;;;;;;10.30;5.05;;;22.20;99.90;;;;;;5027804;28;20235;-75
2022/08/29 11:44:48;;;;;;;15.02;5.80;;;22.10;99.90;;;;;;5060333;28;20267;-75
2022/08/29 11:47:35;;;;;;;9.18;5.50;;;22.30;99.90;;;;;;5052639;28;20203;-72
2022/08/29 11:50:26;;;;;;;14.90;5.75;;;22.40;99.90;;;;;;5050927;28;20294;-75
2022/08/29 11:53:11;;;;;;;60.53;9.45;;;22.40;99.90;;;;;;5059978;28;20712;-73
2022/08/29 11:55:39;;;;;;;27.58;7.10;;;22.40;99.90;;;;;;5054392;28;20651;-72
2022/08/29 11:58:25;;;;;;;17.02;5.40;;;22.40;99.90;;;;;;5049779;28;20214;-73
2022/08/29 12:00:53;;;;;;;13.48;5.53;;;22.50;99.90;;;;;;5058905;28;20664;-74
2022/08/29 12:03:34;;;;;;;13.80;5.07;;;22.60;99.90;;;;;;5056179;28;20227;-75
2022/08/29 12:06:03;;;;;;;7.32;4.45;;;22.80;99.90;;;;;;5044938;28;20596;-75
2022/08/29 12:08:45;;;;;;;11.07;4.60;;;22.90;99.90;;;;;;5056278;28;20205;-74
2022/08/29 12:11:12;;;;;;;13.55;5.43;;;23.20;99.90;;;;;;5056809;28;20281;-73
2022/08/29 12:13:58;;;;;;;10.57;4.50;;;23.20;99.90;;;;;;5051252;28;20299;-73
2022/08/29 12:16:44;;;;;;;12.52;4.65;;;23.40;99.90;;;;;;5052311;28;20211;-73
2022/08/29 12:19:10;;;;;;;7.68;4.25;;;23.20;99.90;;;;;;5056341;28;20226;-71
2022/08/29 12:21:35;;;;;;;7.70;4.05;;;23.10;99.90;;;;;;5055007;28;20192;-72
2022/08/29 12:24:03;;;;;;;7.90;4.85;;;23.10;99.90;;;;;;5052348;28;20225;-73
2022/08/29 12:26:39;;;;;;;7.72;4.40;;;23.10;99.90;;;;;;5057784;28;20298;-73
2022/08/29 12:29:06;;;;;;;11.27;4.10;;;22.90;99.90;;;;;;5037233;28;20276;-74
2022/08/29 12:31:41;;;;;;;8.88;4.80;;;22.90;99.90;;;;;;5058187;28;20245;-73
2022/08/29 12:34:19;;;;;;;7.60;4.97;;;23.00;99.90;;;;;;5053411;28;20215;-75
2022/08/29 12:36:50;;;;;;;9.65;5.40;;;23.20;99.90;;;;;;5062028;28;20226;-75
2022/08/29 12:39:37;;;;;;;7.30;4.07;;;23.40;99.90;;;;;;5055004;28;20176;-75
2022/08/29 12:42:20;;;;;;;5.90;4.70;;;23.50;99.90;;;;;;5059005;28;20231;-76
2022/08/29 12:45:04;;;;;;;6.63;4.07;;;23.20;99.90;;;;;;5062823;28;20297;-74
2022/08/29 12:47:39;;;;;;;10.02;4.57;;;23.10;99.90;;;;;;5054672;28;20192;-75
2022/08/29 12:50:20;;;;;;;8.27;4.43;;;23.00;99.90;;;;;;5058272;28;20746;-74
2022/08/29 12:53:00;;;;;;;7.78;4.50;;;23.00;99.90;;;;;;5062088;28;20206;-74
2022/08/29 12:55:33;;;;;;;9.60;4.43;;;22.90;99.90;;;;;;5069673;28;20238;-77
2022/08/29 12:57:58;;;;;;;9.20;4.65;;;22.80;99.90;;;;;;5059539;28;20530;-73